Time;durP1;ratioP1;P1;durP2;ratioP2;P2;SDS_P1;SDS_P2;PMS_P1;PMS_P2;Temp;Humidity;BMP_temperature;BMP_pressure;BME280_temperature;BME280_humidity;BME280_pressure;Samples;Min_cycle;Max_cycle;Signal;HPM_P1;HPM_P2
2024/03/06 00:00:36;;;;;;;2.60;2.40;;;;;;;19.00;52.20;97365.22;5036138;28;20198;-25
2024/03/06 00:03:03;;;;;;;2.60;2.40;;;;;;;18.99;52.22;97361.84;5031077;28;20228;-25
2024/03/06 00:05:29;;;;;;;2.70;2.50;;;;;;;18.99;52.16;97372.03;5037139;28;20220;-25
2024/03/06 00:07:56;;;;;;;2.73;2.53;;;;;;;19.00;52.31;97368.66;5031051;28;20205;-25
2024/03/06 00:10:23;;;;;;;2.97;2.60;;;;;;;19.00;52.33;97368.66;5030922;28;20212;-25
2024/03/06 00:12:49;;;;;;;2.60;2.40;;;;;;;19.02;52.45;97363.63;5030947;28;20672;-26
2024/03/06 00:15:16;;;;;;;2.97;2.43;;;;;;;19.02;52.38;97366.16;5036976;28;20702;-25
2024/03/06 00:17:42;;;;;;;2.70;2.50;;;;;;;19.01;52.13;97370.38;5031845;28;20249;-25
2024/03/06 00:20:10;;;;;;;2.83;2.47;;;;;;;19.01;52.44;97372.94;5028501;28;20672;-25
2024/03/06 00:22:37;;;;;;;2.93;2.73;;;;;;;19.01;52.23;97369.53;5030864;28;20272;-25
2024/03/06 00:25:04;;;;;;;2.60;2.40;;;;;;;19.00;52.47;97366.13;5033133;28;20223;-28
2024/03/06 00:27:31;;;;;;;2.57;2.37;;;;;;;19.01;52.28;97374.63;5031273;28;20232;-25
2024/03/06 00:29:57;;;;;;;2.60;2.40;;;;;;;19.01;52.36;97375.47;5027521;28;20206;-25
2024/03/06 00:32:24;;;;;;;2.70;2.50;;;;;;;19.01;52.44;97374.63;5030832;28;20296;-27
2024/03/06 00:34:51;;;;;;;2.73;2.53;;;;;;;18.97;52.48;97370.22;5028917;28;20217;-25
2024/03/06 00:37:17;;;;;;;3.00;2.57;;;;;;;18.98;52.56;97370.28;5030759;28;20293;-25
2024/03/06 00:39:44;;;;;;;2.60;2.40;;;;;;;19.01;52.39;97377.19;5028623;28;20733;-25
2024/03/06 00:42:13;;;;;;;2.90;2.60;;;;;;;19.00;52.21;97378.84;5030644;28;20257;-26
2024/03/06 00:44:40;;;;;;;2.80;2.60;;;;;;;19.01;52.81;97380.56;5030550;28;20217;-25
2024/03/06 00:47:07;;;;;;;3.00;2.67;;;;;;;19.02;52.85;97382.31;5030715;28;20526;-25
2024/03/06 00:49:33;;;;;;;2.73;2.53;;;;;;;19.02;52.32;97386.53;5030403;28;20194;-25
2024/03/06 00:52:00;;;;;;;2.90;2.60;;;;;;;19.01;52.33;97388.22;5031120;28;20202;-25
2024/03/06 00:54:26;;;;;;;3.20;2.33;;;;;;;19.02;51.78;97389.09;5039738;28;20229;-25
2024/03/06 00:56:53;;;;;;;2.30;2.10;;;;;;;19.00;52.21;97383.94;5034788;28;20252;-27
2024/03/06 00:59:20;;;;;;;2.70;2.50;;;;;;;19.01;52.32;97383.13;5041941;28;20194;-25
2024/03/06 01:01:46;;;;;;;2.77;2.50;;;;;;;19.01;52.35;97382.28;5034224;28;20217;-27
2024/03/06 01:04:13;;;;;;;2.70;2.50;;;;;;;18.99;52.32;97381.34;5038568;28;20607;-25
2024/03/06 01:06:40;;;;;;;2.60;2.40;;;;;;;19.00;52.11;97375.41;5032401;28;20197;-25
2024/03/06 01:09:06;;;;;;;2.67;2.47;;;;;;;19.00;52.40;97383.06;5038676;28;20579;-25
2024/03/06 01:11:33;;;;;;;3.07;2.73;;;;;;;18.99;52.43;97377.13;5034165;28;20198;-25
2024/03/06 01:14:00;;;;;;;2.67;2.47;;;;;;;19.00;52.54;97381.41;5033765;28;20749;-28
2024/03/06 01:16:26;;;;;;;2.50;2.30;;;;;;;19.02;52.36;97376.34;5033896;28;20197;-25
2024/03/06 01:18:53;;;;;;;2.90;2.70;;;;;;;19.02;52.37;97382.31;5033512;28;20202;-25
2024/03/06 01:21:19;;;;;;;2.70;2.50;;;;;;;19.01;52.21;97375.47;5033147;28;20198;-25
2024/03/06 01:23:46;;;;;;;2.57;2.37;;;;;;;19.02;52.37;97369.59;5033612;28;20217;-25
2024/03/06 01:26:13;;;;;;;2.90;2.60;;;;;;;19.02;52.26;97361.94;5033846;28;20216;-25
2024/03/06 01:28:39;;;;;;;3.70;2.80;;;;;;;19.03;52.30;97370.44;5037015;28;20575;-25
2024/03/06 01:31:06;;;;;;;3.33;2.63;;;;;;;19.03;52.33;97371.31;5032807;28;20322;-25
2024/03/06 01:33:33;;;;;;;2.63;2.43;;;;;;;19.01;52.47;97370.38;5033798;28;20660;-25
2024/03/06 01:36:00;;;;;;;2.40;2.20;;;;;;;19.03;52.66;97375.53;5034184;28;20610;-25
2024/03/06 01:38:27;;;;;;;2.50;2.30;;;;;;;19.04;52.32;97367.94;5040810;28;20657;-26
2024/03/06 01:40:53;;;;;;;2.50;2.30;;;;;;;19.05;52.14;97379.00;5033143;28;20641;-25
2024/03/06 01:43:21;;;;;;;2.40;2.30;;;;;;;19.03;52.35;97370.44;5025236;28;20708;-25
2024/03/06 01:45:49;;;;;;;2.57;2.37;;;;;;;19.02;52.50;97361.06;5031593;28;20194;-25
2024/03/06 01:48:23;;;;;;;2.50;2.30;;;;;;;19.03;52.29;97373.88;5032988;28;20255;-25
2024/03/06 01:50:49;;;;;;;2.47;2.27;;;;;;;19.05;52.49;97371.38;5036759;28;20190;-26
2024/03/06 01:53:16;;;;;;;3.03;2.33;;;;;;;19.05;52.42;97364.63;5039350;28;20237;-25
2024/03/06 01:55:43;;;;;;;2.47;2.27;;;;;;;19.03;52.37;97363.69;5032351;28;20205;-25
2024/03/06 01:58:09;;;;;;;2.30;2.10;;;;;;;19.00;52.39;97358.47;5033489;28;20777;-25
2024/03/06 02:00:36;;;;;;;2.97;2.50;;;;;;;19.02;52.56;97361.06;5037421;28;20201;-26
2024/03/06 02:03:02;;;;;;;2.70;2.50;;;;;;;19.03;52.45;97357.72;5014531;28;20217;-25
2024/03/06 02:05:30;;;;;;;2.33;2.13;;;;;;;19.03;52.46;97356.03;5030188;28;20224;-25
2024/03/06 02:07:59;;;;;;;2.80;2.60;;;;;;;19.00;52.73;97348.28;5035879;28;20276;-25
2024/03/06 02:10:27;;;;;;;2.70;2.50;;;;;;;19.03;52.64;97353.50;5032753;28;20748;-26
2024/03/06 02:12:54;;;;;;;2.60;2.40;;;;;;;19.04;52.86;97351.81;5034594;28;20656;-25
2024/03/06 02:15:21;;;;;;;2.60;2.40;;;;;;;19.03;53.07;97348.41;5034988;28;20781;-27
2024/03/06 02:17:47;;;;;;;2.73;2.53;;;;;;;19.04;52.53;97360.31;5032081;28;20297;-27
2024/03/06 02:20:15;;;;;;;2.60;2.40;;;;;;;19.03;52.37;97361.13;5031026;28;20202;-27
2024/03/06 02:22:42;;;;;;;2.40;2.20;;;;;;;19.04;52.69;97356.91;5032620;28;20217;-25
2024/03/06 02:25:09;;;;;;;2.70;2.50;;;;;;;19.00;52.12;97345.75;5032441;28;20225;-26
2024/03/06 02:27:36;;;;;;;2.90;2.60;;;;;;;18.98;52.39;97344.81;5031282;28;20564;-25
2024/03/06 02:30:03;;;;;;;4.23;2.10;;;;;;;19.05;52.73;97354.44;5032513;28;20236;-29
2024/03/06 02:32:30;;;;;;;2.77;2.57;;;;;;;19.06;52.58;97350.19;5032717;28;20194;-25
2024/03/06 02:34:57;;;;;;;2.70;2.50;;;;;;;19.06;52.75;97351.06;5032753;28;20248;-25
2024/03/06 02:37:24;;;;;;;2.53;2.33;;;;;;;19.05;52.49;97346.78;5032216;28;20208;-27
2024/03/06 02:39:51;;;;;;;2.97;2.63;;;;;;;19.03;52.24;97343.31;5032054;28;20202;-25
2024/03/06 02:42:17;;;;;;;2.57;2.37;;;;;;;19.03;52.61;97344.97;5032221;28;20260;-25
2024/03/06 02:44:44;;;;;;;2.40;2.17;;;;;;;19.02;52.62;97346.66;5032170;28;20213;-25
2024/03/06 02:47:10;;;;;;;2.90;2.70;;;;;;;19.02;52.64;97340.69;5031858;28;20201;-25
2024/03/06 02:49:37;;;;;;;2.50;2.30;;;;;;;19.00;52.56;97337.22;5039039;28;20580;-25
2024/03/06 02:52:04;;;;;;;2.70;2.50;;;;;;;19.03;52.57;97340.75;5032553;28;20202;-26
2024/03/06 02:54:30;;;;;;;2.47;2.27;;;;;;;19.03;52.86;97345.84;5037552;28;20753;-25
2024/03/06 02:56:57;;;;;;;2.37;2.17;;;;;;;19.03;52.56;97347.53;5032443;28;20206;-25
2024/03/06 02:59:24;;;;;;;2.27;2.07;;;;;;;19.04;52.44;97344.19;5031476;28;20202;-25
2024/03/06 03:01:50;;;;;;;2.60;2.40;;;;;;;19.04;52.55;97339.09;5040513;28;20255;-27
2024/03/06 03:04:17;;;;;;;2.40;2.20;;;;;;;19.04;52.48;97341.63;5031296;28;20225;-28
2024/03/06 03:06:44;;;;;;;2.70;2.50;;;;;;;19.04;52.68;97339.09;5039879;28;20679;-25
2024/03/06 03:09:13;;;;;;;2.77;2.57;;;;;;;19.05;52.64;97333.16;5029254;28;20205;-25
2024/03/06 03:11:42;;;;;;;2.70;2.50;;;;;;;19.05;52.58;97335.72;5032029;28;20234;-25
2024/03/06 03:14:08;;;;;;;2.50;2.30;;;;;;;19.04;52.15;97334.84;5031631;28;20221;-25
2024/03/06 03:16:36;;;;;;;2.53;2.33;;;;;;;19.05;52.18;97333.16;5024669;28;20263;-25
2024/03/06 03:19:02;;;;;;;2.93;2.63;;;;;;;19.06;52.49;97333.22;5031507;28;20293;-25
2024/03/06 03:21:29;;;;;;;2.30;2.10;;;;;;;19.05;52.55;97330.63;5032104;28;20575;-25
2024/03/06 03:23:55;;;;;;;2.67;2.40;;;;;;;19.05;52.66;97330.63;5031633;28;20316;-25
2024/03/06 03:26:22;;;;;;;2.70;2.50;;;;;;;19.03;52.57;97329.69;5031466;28;20580;-25
2024/03/06 03:28:48;;;;;;;2.80;2.60;;;;;;;19.03;52.48;97329.69;5031647;28;20217;-25
2024/03/06 03:31:15;;;;;;;2.70;2.50;;;;;;;19.04;52.71;97339.09;5030806;28;20202;-27
2024/03/06 03:33:42;;;;;;;2.70;2.50;;;;;;;19.03;52.41;97332.25;5031271;28;20288;-25
2024/03/06 03:36:09;;;;;;;2.20;2.00;;;;;;;19.06;52.74;97337.44;5031324;28;20212;-25
2024/03/06 03:38:38;;;;;;;2.60;2.40;;;;;;;19.05;52.79;97339.13;5031555;28;20193;-25
2024/03/06 03:41:15;;;;;;;3.20;2.90;;;;;;;19.05;52.68;97343.34;5031682;28;20224;-25
2024/03/06 03:43:42;;;;;;;2.70;2.50;;;;;;;19.04;52.62;97342.47;5030681;28;20232;-25
2024/03/06 03:46:09;;;;;;;2.70;2.50;;;;;;;19.05;52.49;97353.53;5031189;28;20584;-26
2024/03/06 03:48:36;;;;;;;2.93;2.73;;;;;;;19.04;52.79;97346.72;5032400;28;20683;-27
2024/03/06 03:51:09;;;;;;;2.57;2.37;;;;;;;19.05;52.68;97341.69;5031184;28;20201;-25
2024/03/06 03:53:36;;;;;;;2.40;2.20;;;;;;;19.05;52.66;97351.88;5036282;28;20235;-25
2024/03/06 03:56:03;;;;;;;2.20;2.10;;;;;;;19.04;52.67;97347.56;5041037;28;20204;-25
2024/03/06 03:58:30;;;;;;;3.00;2.70;;;;;;;19.05;52.57;97351.00;5034397;28;20280;-25
2024/03/06 04:00:56;;;;;;;2.77;2.57;;;;;;;19.04;52.77;97351.81;5035625;28;20616;-25
2024/03/06 04:03:23;;;;;;;2.50;2.30;;;;;;;19.04;52.57;97349.28;5031467;28;20719;-26
2024/03/06 04:05:51;;;;;;;2.60;2.40;;;;;;;18.96;52.63;97340.47;5037110;28;20572;-25
2024/03/06 04:08:17;;;;;;;2.70;2.50;;;;;;;19.00;52.86;97358.47;5042586;28;20288;-25
2024/03/06 04:10:47;;;;;;;2.80;2.60;;;;;;;19.04;52.63;97364.56;5040770;28;20247;-25
2024/03/06 04:13:15;;;;;;;2.60;2.40;;;;;;;18.99;52.87;97350.78;5033778;28;20214;-25
2024/03/06 04:15:41;;;;;;;2.60;2.40;;;;;;;19.04;52.92;97362.00;5031188;28;20642;-25
2024/03/06 04:18:08;;;;;;;2.70;2.50;;;;;;;19.02;52.69;97354.31;5039732;28;20232;-25
2024/03/06 04:20:34;;;;;;;3.43;2.50;;;;;;;19.05;52.78;97362.06;5032200;28;20232;-25
2024/03/06 04:23:02;;;;;;;2.77;2.57;;;;;;;19.04;52.73;97365.41;5040086;28;20257;-25
2024/03/06 04:25:28;;;;;;;2.87;2.67;;;;;;;19.04;52.84;97377.28;5033155;28;20225;-29
2024/03/06 04:27:55;;;;;;;2.60;2.40;;;;;;;19.05;52.34;97376.47;5037143;28;20206;-25
2024/03/06 04:30:22;;;;;;;2.47;2.27;;;;;;;19.04;53.12;97382.38;5033552;28;20202;-25
2024/03/06 04:32:48;;;;;;;3.47;2.60;;;;;;;19.05;52.98;97385.00;5036629;28;20189;-27
2024/03/06 04:35:15;;;;;;;2.70;2.50;;;;;;;19.06;53.03;97390.94;5034290;28;20245;-25
2024/03/06 04:37:43;;;;;;;2.90;2.70;;;;;;;19.00;52.81;97377.97;5034492;28;20248;-26
2024/03/06 04:40:11;;;;;;;2.90;2.70;;;;;;;19.06;52.62;97391.81;5033737;28;20593;-25
2024/03/06 04:42:37;;;;;;;2.80;2.60;;;;;;;19.04;52.65;97385.78;5034323;28;20209;-25
2024/03/06 04:45:11;;;;;;;2.70;2.50;;;;;;;19.05;52.68;97389.19;5035039;28;20267;-25
2024/03/06 04:47:37;;;;;;;2.60;2.40;;;;;;;19.04;52.82;97392.56;5037143;28;20686;-26
2024/03/06 04:50:08;;;;;;;2.47;2.27;;;;;;;19.04;52.82;97395.13;5040041;28;20193;-25
2024/03/06 04:52:35;;;;;;;3.33;2.87;;;;;;;19.04;52.72;97393.41;5033670;28;20205;-25
2024/03/06 04:55:02;;;;;;;2.70;2.50;;;;;;;19.04;53.24;97397.66;5035892;28;20225;-25
2024/03/06 04:57:30;;;;;;;2.77;2.57;;;;;;;19.05;52.87;97399.38;5044782;28;20215;-33
2024/03/06 04:59:58;;;;;;;2.90;2.67;;;;;;;19.05;53.26;97402.81;5032145;28;20773;-25
2024/03/06 05:02:26;;;;;;;2.60;2.40;;;;;;;19.06;52.89;97401.13;5033889;28;20549;-25
2024/03/06 05:04:52;;;;;;;2.80;2.60;;;;;;;19.06;52.87;97398.56;5033010;28;20680;-25
2024/03/06 05:07:36;;;;;;;2.70;2.50;;;;;;;19.04;52.68;97401.06;5034117;28;20192;-25
2024/03/06 05:10:20;;;;;;;2.97;2.77;;;;;;;19.05;52.85;97407.91;5032051;28;20269;-25
2024/03/06 05:13:04;;;;;;;2.70;2.50;;;;;;;19.04;52.81;97406.16;5033777;28;20273;-26
2024/03/06 05:15:48;;;;;;;2.60;2.40;;;;;;;19.05;52.87;97414.66;5032368;28;20307;-25
2024/03/06 05:18:34;;;;;;;2.77;2.57;;;;;;;19.04;52.88;97403.59;5041909;28;20188;-25
2024/03/06 05:21:18;;;;;;;2.60;2.40;;;;;;;19.05;52.76;97407.03;5045098;28;20344;-25
2024/03/06 05:24:02;;;;;;;2.57;2.37;;;;;;;19.05;53.17;97407.91;5037205;28;20224;-27
2024/03/06 05:26:46;;;;;;;2.63;2.43;;;;;;;19.04;52.98;97412.94;5032552;28;20204;-26
2024/03/06 05:29:30;;;;;;;3.20;2.77;;;;;;;19.03;52.63;97418.81;5044058;28;20725;-25
2024/03/06 05:32:14;;;;;;;3.17;2.90;;;;;;;18.98;53.03;97410.19;5032010;28;20578;-25
2024/03/06 05:34:58;;;;;;;2.90;2.70;;;;;;;19.03;52.72;97422.25;5035188;28;20212;-25
2024/03/06 05:37:42;;;;;;;3.70;3.30;;;;;;;19.04;52.99;97429.06;5038752;28;20191;-25
2024/03/06 05:40:26;;;;;;;3.57;3.27;;;;;;;19.01;52.80;97421.31;5033184;28;20616;-25
2024/03/06 05:43:10;;;;;;;3.80;3.40;;;;;;;19.00;52.74;97414.50;5030297;28;20701;-25
2024/03/06 05:45:53;;;;;;;3.33;3.03;;;;;;;19.06;52.84;97429.13;5040101;28;20270;-25
2024/03/06 05:48:37;;;;;;;3.60;3.30;;;;;;;19.05;52.75;97435.03;5033902;28;20248;-25
2024/03/06 05:51:21;;;;;;;3.73;3.43;;;;;;;19.04;52.68;97440.97;5033956;28;20585;-25
2024/03/06 05:54:08;;;;;;;4.57;4.13;;;;;;;19.06;52.42;97441.88;5033415;28;20232;-25
2024/03/06 05:56:51;;;;;;;4.60;4.20;;;;;;;19.09;52.22;97441.97;5037932;23;20719;-28
2024/03/06 05:59:37;;;;;;;5.13;3.97;;;;;;;19.08;52.50;97438.59;5024535;28;20624;-25
2024/03/06 06:02:04;;;;;;;5.30;4.73;;;;;;;19.07;52.52;97441.91;5026519;28;20206;-25
2024/03/06 06:04:30;;;;;;;4.27;3.87;;;;;;;19.07;52.06;97447.03;5031476;28;20598;-26
2024/03/06 06:07:03;;;;;;;5.50;4.30;;;;;;;19.05;52.45;97441.03;5026695;28;20226;-25
2024/03/06 06:09:29;;;;;;;6.03;4.60;;;;;;;19.06;52.89;97444.41;5030330;28;20691;-25
2024/03/06 06:11:56;;;;;;;4.87;4.37;;;;;;;19.06;52.60;97449.50;5028030;28;20210;-25
2024/03/06 06:14:23;;;;;;;14.53;10.20;;;;;;;19.03;50.24;97445.19;5023607;28;20276;-27
2024/03/06 06:16:50;;;;;;;15.10;11.73;;;;;;;19.03;49.80;97449.38;5025994;28;20221;-25
2024/03/06 06:19:18;;;;;;;13.27;11.03;;;;;;;19.04;50.16;97453.69;5021520;28;20213;-25
2024/03/06 06:21:44;;;;;;;14.07;10.87;;;;;;;19.03;50.34;97452.81;5022923;28;20672;-25
2024/03/06 06:24:11;;;;;;;11.93;10.47;;;;;;;19.03;50.88;97455.38;5026040;28;20260;-32
2024/03/06 06:26:38;;;;;;;11.73;9.80;;;;;;;18.96;50.86;97447.44;5025593;28;20650;-25
2024/03/06 06:29:04;;;;;;;11.97;9.67;;;;;;;19.03;51.18;97459.56;5019893;28;20210;-25
2024/03/06 06:31:31;;;;;;;11.17;9.47;;;;;;;19.04;51.22;97463.88;5032151;28;20259;-26
2024/03/06 06:33:58;;;;;;;12.00;9.83;;;;;;;19.03;51.37;97469.75;5030233;28;20197;-25
2024/03/06 06:36:25;;;;;;;12.17;9.47;;;;;;;19.03;51.44;97470.66;5031985;28;20855;-25
2024/03/06 06:38:51;;;;;;;11.63;9.60;;;;;;;19.02;51.58;97474.00;5031953;28;20201;-25
2024/03/06 06:41:19;;;;;;;10.60;8.90;;;;;;;19.02;51.54;97478.22;5026830;28;20284;-25
2024/03/06 06:43:45;;;;;;;10.30;9.13;;;;;;;19.04;51.62;97497.00;5019456;28;20218;-25
2024/03/06 06:46:12;;;;;;;10.13;7.77;;;;;;;19.03;51.49;97483.38;5030308;28;20296;-26
2024/03/06 06:48:39;;;;;;;11.90;9.00;;;;;;;19.03;51.48;97479.94;5024638;28;20198;-25
2024/03/06 06:51:05;;;;;;;9.87;8.87;;;;;;;19.02;51.76;97483.31;5025686;28;20237;-25
2024/03/06 06:53:32;;;;;;;9.97;8.97;;;;;;;19.03;51.70;97488.47;5022860;28;20194;-27
2024/03/06 06:55:59;;;;;;;9.03;8.10;;;;;;;19.04;51.60;97481.72;5021510;28;20317;-26
2024/03/06 06:58:26;;;;;;;9.70;8.33;;;;;;;19.05;51.67;97483.44;5016598;28;20256;-29
2024/03/06 07:00:53;;;;;;;9.07;7.93;;;;;;;19.06;52.10;97485.16;5019923;28;20199;-25
2024/03/06 07:03:21;;;;;;;9.47;7.97;;;;;;;19.06;51.81;97492.81;5022621;28;20279;-25
2024/03/06 07:05:48;;;;;;;9.60;8.13;;;;;;;19.07;51.67;97490.31;5026288;28;20225;-25
2024/03/06 07:08:15;;;;;;;9.07;7.87;;;;;;;19.08;51.66;97497.16;5024672;28;20240;-25
2024/03/06 07:10:41;;;;;;;9.00;8.00;;;;;;;19.10;51.66;97502.31;5023206;28;20202;-25
2024/03/06 07:13:08;;;;;;;9.97;8.73;;;;;;;19.10;51.66;97512.50;5023617;28;20225;-25
2024/03/06 07:15:35;;;;;;;13.20;10.00;;;;;;;19.08;49.59;97509.03;5022659;28;20217;-26
2024/03/06 07:18:01;;;;;;;15.33;12.60;;;;;;;19.07;48.89;97505.59;5023841;28;20680;-26
2024/03/06 07:20:29;;;;;;;14.60;12.20;;;;;;;19.08;49.19;97514.13;5021854;28;20206;-25
2024/03/06 07:22:56;;;;;;;12.67;10.77;;;;;;;19.07;49.71;97515.78;5022808;28;20202;-25
2024/03/06 07:25:22;;;;;;;14.97;12.13;;;;;;;19.08;50.00;97504.81;5019849;28;20226;-25
2024/03/06 07:27:49;;;;;;;15.30;11.63;;;;;;;19.09;50.04;97509.09;5023910;28;20573;-25
2024/03/06 07:30:16;;;;;;;12.87;10.73;;;;;;;19.11;49.99;97509.16;5023128;28;20202;-28
2024/03/06 07:32:42;;;;;;;12.53;10.23;;;;;;;19.12;50.34;97514.28;5015692;28;20554;-25
2024/03/06 07:35:10;;;;;;;11.90;9.93;;;;;;;19.14;50.43;97509.25;5018305;28;20205;-25
2024/03/06 07:37:36;;;;;;;12.13;10.33;;;;;;;19.15;50.51;97518.63;5014575;28;20264;-25
2024/03/06 07:40:04;;;;;;;13.30;10.53;;;;;;;19.17;50.58;97520.44;5021580;28;20613;-25
2024/03/06 07:42:33;;;;;;;11.50;9.50;;;;;;;19.20;50.62;97517.13;5025414;28;20205;-25
2024/03/06 07:45:00;;;;;;;12.30;10.00;;;;;;;19.21;50.58;97517.19;5018896;28;20319;-26
2024/03/06 07:47:27;;;;;;;11.73;9.27;;;;;;;19.22;50.65;97515.53;5022264;28;20201;-25
2024/03/06 07:49:53;;;;;;;9.90;8.60;;;;;;;19.24;50.70;97518.97;5021037;28;20212;-25
2024/03/06 07:52:20;;;;;;;10.73;9.40;;;;;;;19.26;50.82;97525.00;5017069;28;20641;-25
2024/03/06 07:54:47;;;;;;;10.47;8.97;;;;;;;19.27;50.55;97530.19;5021997;28;20661;-25
2024/03/06 07:57:13;;;;;;;10.03;8.87;;;;;;;19.28;50.71;97537.06;5022464;28;20237;-25
2024/03/06 07:59:40;;;;;;;9.00;8.10;;;;;;;19.29;50.61;97527.72;5015877;28;20370;-25
2024/03/06 08:02:07;;;;;;;10.10;9.00;;;;;;;19.31;50.54;97533.75;5020051;28;20193;-28
2024/03/06 08:04:35;;;;;;;10.00;8.43;;;;;;;19.32;50.57;97538.03;5026303;28;20225;-25
2024/03/06 08:07:01;;;;;;;9.03;7.70;;;;;;;19.34;50.64;97541.50;5021514;28;20230;-26
2024/03/06 08:09:28;;;;;;;9.43;8.43;;;;;;;19.34;50.98;97536.41;5027774;28;20198;-27
2024/03/06 08:11:55;;;;;;;8.97;7.80;;;;;;;19.34;50.78;97542.38;5026595;28;20205;-25
2024/03/06 08:14:22;;;;;;;9.63;7.93;;;;;;;19.37;50.56;97544.16;5027206;28;20691;-26
2024/03/06 08:16:48;;;;;;;9.77;7.80;;;;;;;19.36;50.69;97545.84;5021032;28;20648;-25
2024/03/06 08:19:15;;;;;;;7.97;7.17;;;;;;;19.37;50.57;97549.25;5025977;28;20656;-25
2024/03/06 08:21:41;;;;;;;9.40;7.60;;;;;;;19.38;50.65;97543.34;5019276;28;20202;-28
2024/03/06 08:24:08;;;;;;;8.30;7.50;;;;;;;19.38;50.77;97544.22;5022192;28;20300;-25
2024/03/06 08:26:35;;;;;;;8.97;7.43;;;;;;;19.40;50.79;97549.38;5019377;28;20237;-25
2024/03/06 08:29:01;;;;;;;7.73;6.93;;;;;;;19.40;50.70;97551.94;5019739;28;20201;-25
2024/03/06 08:31:29;;;;;;;9.07;7.77;;;;;;;19.41;50.58;97556.19;5023101;28;20201;-25
2024/03/06 08:33:55;;;;;;;8.37;7.20;;;;;;;19.40;50.64;97557.91;5022511;28;20202;-25
2024/03/06 08:36:24;;;;;;;7.57;6.70;;;;;;;19.41;50.72;97553.66;5030611;28;20584;-26
2024/03/06 08:38:51;;;;;;;6.93;6.23;;;;;;;19.41;50.66;97553.66;5022018;28;20208;-25
2024/03/06 08:41:18;;;;;;;8.63;6.47;;;;;;;19.42;50.83;97566.47;5015867;28;20194;-25
2024/03/06 08:43:45;;;;;;;8.27;6.70;;;;;;;19.41;50.68;97567.28;5030602;28;20664;-27
2024/03/06 08:46:12;;;;;;;8.37;6.83;;;;;;;19.42;50.60;97569.00;5022836;28;20245;-25
2024/03/06 08:48:39;;;;;;;6.80;6.10;;;;;;;19.42;50.66;97563.91;5027784;28;20202;-26
2024/03/06 08:51:10;;;;;;;7.10;6.40;;;;;;;19.42;50.80;97569.00;5021604;28;20205;-25
2024/03/06 08:53:38;;;;;;;6.67;5.97;;;;;;;19.43;50.58;97577.53;5019969;28;20201;-30
2024/03/06 08:56:05;;;;;;;7.97;6.80;;;;;;;19.44;50.74;97579.25;5022859;28;20272;-25
2024/03/06 08:58:32;;;;;;;7.40;6.27;;;;;;;19.44;50.74;97581.81;5017300;28;20204;-26
2024/03/06 09:00:59;;;;;;;6.67;5.97;;;;;;;19.44;50.77;97581.81;5023247;28;20257;-25
2024/03/06 09:03:25;;;;;;;7.33;6.20;;;;;;;19.44;50.63;97577.59;5023644;28;20606;-26
2024/03/06 09:05:52;;;;;;;7.33;6.40;;;;;;;19.45;50.72;97586.13;5020456;28;20217;-25
2024/03/06 09:08:19;;;;;;;6.83;6.13;;;;;;;19.45;50.83;97594.59;5028457;28;20252;-25
2024/03/06 09:10:45;;;;;;;6.60;5.90;;;;;;;19.46;50.81;97595.50;5020674;28;20221;-25
2024/03/06 09:13:12;;;;;;;6.27;5.67;;;;;;;19.46;50.80;97606.56;5020847;28;20206;-27
2024/03/06 09:15:38;;;;;;;6.37;5.57;;;;;;;19.47;50.67;97602.31;5016348;28;20252;-25
2024/03/06 09:18:06;;;;;;;6.73;6.00;;;;;;;19.47;50.75;97600.66;5023350;28;20639;-25
2024/03/06 09:20:32;;;;;;;6.40;5.77;;;;;;;19.47;50.73;97603.19;5028178;28;20209;-25
2024/03/06 09:23:00;;;;;;;5.87;5.27;;;;;;;19.42;50.75;97591.09;5023295;28;20702;-25
2024/03/06 09:25:26;;;;;;;6.43;5.77;;;;;;;19.48;50.74;97599.81;5028915;28;20299;-25
2024/03/06 09:27:56;;;;;;;5.80;5.20;;;;;;;19.47;50.61;97603.19;5018190;28;20213;-25
2024/03/06 09:30:23;;;;;;;6.13;5.53;;;;;;;19.49;50.54;97601.59;5020341;28;20225;-25
2024/03/06 09:32:50;;;;;;;6.03;5.43;;;;;;;19.49;50.79;97606.69;5022808;28;20258;-25
2024/03/06 09:35:17;;;;;;;6.97;5.87;;;;;;;19.50;50.71;97612.63;5022806;28;20190;-26
2024/03/06 09:37:46;;;;;;;5.83;5.23;;;;;;;19.50;50.73;97602.44;5018336;28;20204;-25
2024/03/06 09:40:22;;;;;;;5.87;5.27;;;;;;;19.50;50.52;97613.50;5021794;28;20198;-25
2024/03/06 09:42:49;;;;;;;5.60;5.10;;;;;;;19.51;50.67;97611.84;5016126;28;20198;-25
2024/03/06 09:45:16;;;;;;;5.70;5.20;;;;;;;19.51;50.68;97614.38;5019008;28;20325;-25
2024/03/06 09:47:43;;;;;;;6.23;5.40;;;;;;;19.52;50.62;97621.22;5023800;28;20563;-26
2024/03/06 09:50:10;;;;;;;5.67;5.10;;;;;;;19.51;50.75;97624.59;5022432;28;20198;-26
2024/03/06 09:52:37;;;;;;;6.50;5.90;;;;;;;19.39;50.21;97599.47;5019266;28;20201;-25
2024/03/06 09:55:04;;;;;;;7.77;6.50;;;;;;;19.51;49.92;97622.03;5008326;28;20207;-26
2024/03/06 09:57:31;;;;;;;9.67;7.63;;;;;;;19.50;49.81;97622.81;5025390;28;20256;-28
2024/03/06 09:59:57;;;;;;;12.17;7.37;;;;;;;19.50;49.63;97613.50;5031184;28;20263;-26
2024/03/06 10:02:30;;;;;;;7.87;7.03;;;;;;;19.51;50.03;97627.97;5027298;28;20247;-28
2024/03/06 10:04:57;;;;;;;7.77;6.97;;;;;;;19.51;49.91;97624.59;5033064;28;20224;-25
2024/03/06 10:07:24;;;;;;;7.90;6.80;;;;;;;19.52;50.04;97616.13;5024986;28;20739;-25
2024/03/06 10:09:50;;;;;;;8.57;6.90;;;;;;;19.52;50.24;97626.31;5022966;28;20663;-26
2024/03/06 10:12:19;;;;;;;8.30;7.00;;;;;;;19.52;50.30;97628.84;5028995;28;20637;-26
2024/03/06 10:14:51;;;;;;;8.03;6.60;;;;;;;19.53;50.21;97622.94;5002903;28;20194;-26
2024/03/06 10:17:22;;;;;;;7.40;6.30;;;;;;;19.53;50.31;97623.81;5030151;28;20221;-25
2024/03/06 10:19:52;;;;;;;6.77;5.83;;;;;;;19.54;50.48;97622.16;5031617;28;20197;-25
2024/03/06 10:22:20;;;;;;;7.37;6.07;;;;;;;19.54;50.24;97624.69;5028036;28;20253;-25
2024/03/06 10:24:47;;;;;;;7.17;6.47;;;;;;;19.54;50.35;97622.16;5023669;28;20313;-25
2024/03/06 10:27:16;;;;;;;6.47;5.70;;;;;;;19.54;50.38;97619.59;5021194;28;20218;-25
2024/03/06 10:29:42;;;;;;;6.37;5.60;;;;;;;19.54;51.02;97615.34;5032401;28;20291;-25
2024/03/06 10:32:10;;;;;;;6.80;6.17;;;;;;;19.55;49.98;97616.22;5029546;28;20221;-25
2024/03/06 10:34:38;;;;;;;8.63;6.40;;;;;;;19.55;50.41;97623.88;5032226;28;20580;-26
2024/03/06 10:37:05;;;;;;;6.03;5.40;;;;;;;19.56;50.37;97620.50;5017324;28;20439;-25
2024/03/06 10:39:34;;;;;;;6.03;5.43;;;;;;;19.56;50.31;97617.97;5031722;28;20682;-25
2024/03/06 10:42:01;;;;;;;6.47;5.57;;;;;;;19.55;50.38;97617.13;5034984;28;20642;-25
2024/03/06 10:44:29;;;;;;;7.07;6.00;;;;;;;19.56;50.50;97623.06;5037675;28;20208;-26
2024/03/06 10:47:02;;;;;;;5.90;5.30;;;;;;;19.56;50.06;97629.03;5033911;28;20225;-27
2024/03/06 10:49:30;;;;;;;6.77;5.67;;;;;;;19.56;50.41;97625.59;5025659;28;20277;-25
2024/03/06 10:52:00;;;;;;;6.50;5.73;;;;;;;19.57;50.46;97632.47;5022351;28;20205;-27
2024/03/06 10:54:28;;;;;;;6.70;5.50;;;;;;;19.56;50.44;97634.13;5017002;28;20277;-25
2024/03/06 10:56:55;;;;;;;6.57;5.60;;;;;;;19.57;50.47;97632.47;5022444;28;20283;-26
2024/03/06 10:59:21;;;;;;;6.03;5.33;;;;;;;19.57;50.79;97630.75;5020311;28;20201;-25
2024/03/06 11:01:48;;;;;;;6.17;5.37;;;;;;;19.50;50.29;97618.59;5024924;28;20655;-25
2024/03/06 11:04:15;;;;;;;5.97;5.27;;;;;;;19.57;50.40;97630.75;5014294;28;20201;-25
2024/03/06 11:06:41;;;;;;;5.30;4.80;;;;;;;19.55;50.46;97626.44;5028623;28;20218;-25
2024/03/06 11:09:12;;;;;;;5.13;4.63;;;;;;;19.57;50.53;97624.81;5021728;28;20478;-25
2024/03/06 11:11:47;;;;;;;6.07;5.40;;;;;;;19.58;50.58;97626.53;5021746;28;20620;-25
2024/03/06 11:14:14;;;;;;;5.17;4.67;;;;;;;19.55;50.63;97626.44;5020396;28;20205;-25
2024/03/06 11:17:03;;;;;;;5.60;5.10;;;;;;;19.57;50.47;97633.31;5001704;28;20594;-26
2024/03/06 11:19:31;;;;;;;5.30;4.80;;;;;;;19.57;50.61;97632.47;5028987;28;20198;-25
2024/03/06 11:21:58;;;;;;;5.77;5.10;;;;;;;19.56;50.48;97628.16;5030023;28;20208;-25
2024/03/06 11:24:34;;;;;;;5.77;4.93;;;;;;;19.55;50.59;97631.53;5014211;28;20205;-25
2024/03/06 11:27:07;;;;;;;5.43;4.87;;;;;;;19.53;50.68;97636.56;5022292;28;20221;-25
2024/03/06 11:30:13;;;;;;;6.03;4.70;;;;;;;19.53;50.64;97634.00;5016939;28;20669;-26
2024/03/06 11:33:00;;;;;;;5.70;5.10;;;;;;;19.51;50.90;97629.69;5026585;28;20208;-26
2024/03/06 11:35:28;;;;;;;5.30;4.80;;;;;;;19.49;50.95;97626.19;5023183;28;20227;-25
2024/03/06 11:37:55;;;;;;;5.60;5.00;;;;;;;19.46;50.47;97629.50;5030832;28;20215;-25